Staffordville, New Jersey
Current Conditions -  °F | °C
As of 10:35 AM on Monday 22 Dec 2014 (Local Time) from KMJX Reporting Station
Few Clouds Few Clouds  
Wind Chill: 39°   Ceiling: Unl
Heat Index: 43°   Visibility: 10mi
Dew Point: 36°   Wind: 7mph
Humidity: 76%   Direction: 50°NE
Pressure: 30.3"   Gusts: NA
Location:  39.6605°N, 74.2864°W
Report Text: KMJX 221535Z AUTO 05006KT 10SM FEW012 06/02 A3030 RMK AO1
Loading
Personal Weather Stations






























Interactive Weather Map New forecast layout! Learn more

10-Day Weather Forecast

Advertisements
Track Severe Weather on mobile